PWSweather.com
Personal Weather Stations
Station Observations
PALLARSJSA
Sant Marti De CanalsES

Sant Marti De CanalsES

Lat: 42.22577, Lon: 0.9898

Elevation: 2130

Station Type: Davis Vantage Vue

http://www.casacota.cat

Latest ConditionsUpdated 9:46:40 PM GMT+01:01 Monday, Sep 23, 2019
Currently Today's Max Today's Min Today's Average
Temperature 63.0°F17.2°C 74.1°F23.4°C 52.9°F11.6°C 63.4°F17.4°C
Dew Point 45.1°F7.3°C 52.2°F11.2°C 42.4°F5.8°C 47.4°F8.6°C
Winds Calm Calm 13.4 mph -21.6 kmh - - 3.6 mph 5.8 kmh
Wind Gusts -- 14.0 mph22.5 kmh - -
Humidity 52% 82% 32% 59%
Pressure 30.09 in1019.0 mb 30.10 in1019.3 mb 29.98 in1015.2 mb -
Hour Temp Dew Point Humidity Winds Wind Gusts Pressure Precip Precip Rate Daily Precip Total
09:46 PM 63.0°F17.2°C 45.1°F7.3°C 52% Calm Calm -- 30.09 in1019.0 mb 0.00 in0.0 mm 0.00 in0.0 mm 0.00 in0.0 mm
09:31 PM 63.3°F17.4°C 45.4°F7.4°C 52% Calm Calm -- 30.09 in1019.0 mb 0.00 in0.0 mm 0.00 in0.0 mm 0.00 in0.0 mm
09:16 PM 64.0°F17.8°C 45.0°F7.2°C 50% Calm Calm -- 30.08 in1018.6 mb 0.00 in0.0 mm 0.00 in0.0 mm 0.00 in0.0 mm
09:01 PM 65.7°F18.7°C 44.9°F7.2°C 47% 1.7 mph E2.7 kmh E 1.7 mph2.7 kmh 30.07 in1018.3 mb 0.00 in0.0 mm 0.00 in0.0 mm 0.00 in0.0 mm
08:46 PM 65.8°F18.8°C 45.0°F7.2°C 47% 3.3 mph E5.3 kmh E 3.3 mph5.3 kmh 30.08 in1018.6 mb 0.00 in0.0 mm 0.00 in0.0 mm 0.00 in0.0 mm
08:31 PM 66.2°F19.0°C 44.8°F7.1°C 46% 3.3 mph E5.3 kmh E 5.0 mph8.0 kmh 30.08 in1018.6 mb 0.00 in0.0 mm 0.00 in0.0 mm 0.00 in0.0 mm
08:16 PM 66.2°F19.0°C 44.8°F7.1°C 46% 5.0 mph ESE8.0 kmh ESE 5.0 mph8.0 kmh 30.07 in1018.3 mb 0.00 in0.0 mm 0.00 in0.0 mm 0.00 in0.0 mm
08:01 PM 66.6°F19.2°C 45.2°F7.3°C 46% 5.0 mph ESE8.0 kmh ESE 5.0 mph8.0 kmh 30.07 in1018.3 mb 0.00 in0.0 mm 0.00 in0.0 mm 0.00 in0.0 mm
07:46 PM 66.6°F19.2°C 44.6°F7.0°C 45% 5.0 mph E8.0 kmh E 5.0 mph8.0 kmh 30.07 in1018.3 mb 0.00 in0.0 mm 0.00 in0.0 mm 0.00 in0.0 mm
07:31 PM 66.7°F19.3°C 44.7°F7.1°C 45% 6.6 mph E10.6 kmh E 6.6 mph10.6 kmh 30.06 in1017.9 mb 0.00 in0.0 mm 0.00 in0.0 mm 0.00 in0.0 mm
07:16 PM 67.3°F19.6°C 45.3°F7.4°C 45% 6.6 mph E10.6 kmh E 6.6 mph10.6 kmh 30.06 in1017.9 mb 0.00 in0.0 mm 0.00 in0.0 mm 0.00 in0.0 mm
07:01 PM 67.5°F19.7°C 44.8°F7.1°C 44% 6.6 mph SE10.6 kmh SE 6.6 mph10.6 kmh 30.06 in1017.9 mb 0.00 in0.0 mm 0.00 in0.0 mm 0.00 in0.0 mm
06:46 PM 68.2°F20.1°C 44.9°F7.2°C 43% 5.0 mph SE8.0 kmh SE 5.0 mph8.0 kmh 30.05 in1017.6 mb 0.00 in0.0 mm 0.00 in0.0 mm 0.00 in0.0 mm
06:31 PM 68.9°F20.5°C 44.9°F7.2°C 42% 6.6 mph S10.6 kmh S 6.6 mph10.6 kmh 30.04 in1017.3 mb 0.00 in0.0 mm 0.00 in0.0 mm 0.00 in0.0 mm
06:16 PM 69.6°F20.9°C 45.5°F7.5°C 42% 8.3 mph SE13.4 kmh SE 8.3 mph13.4 kmh 30.05 in1017.6 mb 0.00 in0.0 mm 0.00 in0.0 mm 0.00 in0.0 mm
06:01 PM 70.2°F21.2°C 46.1°F7.8°C 42% 8.3 mph S13.4 kmh S 8.3 mph13.4 kmh 30.04 in1017.3 mb 0.00 in0.0 mm 0.00 in0.0 mm 0.00 in0.0 mm
05:46 PM 71.1°F21.7°C 45.6°F7.6°C 40% 10.1 mph S16.3 kmh S 10.1 mph16.3 kmh 30.04 in1017.3 mb 0.00 in0.0 mm 0.00 in0.0 mm 0.00 in0.0 mm
05:31 PM 72.7°F22.6°C 45.7°F7.6°C 38% 10.1 mph S16.3 kmh S 11.0 mph17.7 kmh 30.04 in1017.3 mb 0.00 in0.0 mm 0.00 in0.0 mm 0.00 in0.0 mm
05:16 PM 72.1°F22.3°C 45.8°F7.7°C 39% 13.4 mph SW21.6 kmh SW 13.4 mph21.6 kmh 30.04 in1017.3 mb 0.00 in0.0 mm 0.00 in0.0 mm 0.00 in0.0 mm
05:01 PM 72.0°F22.2°C 45.7°F7.6°C 39% 11.7 mph SSW18.8 kmh SSW 14.0 mph22.5 kmh 30.04 in1017.3 mb 0.00 in0.0 mm 0.00 in0.0 mm 0.00 in0.0 mm
04:46 PM 72.3°F22.4°C 45.3°F7.4°C 38% 11.7 mph SSW18.8 kmh SSW 11.7 mph18.8 kmh 30.04 in1017.3 mb 0.00 in0.0 mm 0.00 in0.0 mm 0.00 in0.0 mm
04:31 PM 73.0°F22.8°C 45.2°F7.3°C 37% 10.1 mph S16.3 kmh S 10.1 mph16.3 kmh 30.04 in1017.3 mb 0.00 in0.0 mm 0.00 in0.0 mm 0.00 in0.0 mm
04:16 PM 72.7°F22.6°C 45.0°F7.2°C 37% 11.7 mph SW18.8 kmh SW 11.7 mph18.8 kmh 30.03 in1016.9 mb 0.00 in0.0 mm 0.00 in0.0 mm 0.00 in0.0 mm
03:46 PM 73.8°F23.2°C 44.5°F6.9°C 35% 10.0 mph SW16.1 kmh SW 10.0 mph16.1 kmh 30.03 in1016.9 mb 0.00 in0.0 mm 0.00 in0.0 mm 0.00 in0.0 mm
03:16 PM 74.1°F23.4°C 42.4°F5.8°C 32% 10.0 mph SSW16.1 kmh SSW 10.0 mph16.1 kmh 30.04 in1017.3 mb 0.00 in0.0 mm 0.00 in0.0 mm 0.00 in0.0 mm
02:31 PM 73.8°F23.2°C 43.7°F6.5°C 34% 9.0 mph S14.5 kmh S 9.0 mph14.5 kmh 30.05 in1017.6 mb 0.00 in0.0 mm 0.00 in0.0 mm 0.00 in0.0 mm
02:16 PM 73.9°F23.3°C 44.6°F7.0°C 35% 5.0 mph SW8.0 kmh SW 5.0 mph8.0 kmh 30.04 in1017.3 mb 0.00 in0.0 mm 0.00 in0.0 mm 0.00 in0.0 mm
02:01 PM 74.1°F23.4°C 44.0°F6.7°C 34% 5.0 mph S8.0 kmh S 8.0 mph12.9 kmh 30.05 in1017.6 mb 0.00 in0.0 mm 0.00 in0.0 mm 0.00 in0.0 mm
01:46 PM 73.8°F23.2°C 45.2°F7.3°C 36% 5.0 mph WSW8.0 kmh WSW 6.0 mph9.7 kmh 30.06 in1017.9 mb 0.00 in0.0 mm 0.00 in0.0 mm 0.00 in0.0 mm
01:31 PM 72.7°F22.6°C 46.3°F7.9°C 39% 5.0 mph SW8.0 kmh SW 5.0 mph8.0 kmh 30.06 in1017.9 mb 0.00 in0.0 mm 0.00 in0.0 mm 0.00 in0.0 mm
01:17 PM 72.7°F22.6°C 45.7°F7.6°C 38% 8.0 mph SSE12.9 kmh SSE 8.0 mph12.9 kmh 30.06 in1017.9 mb 0.00 in0.0 mm 0.00 in0.0 mm 0.00 in0.0 mm
01:00 PM 72.7°F22.6°C 47.0°F8.3°C 40% 6.0 mph SSW9.7 kmh SSW 6.0 mph9.7 kmh 30.07 in1018.3 mb 0.00 in0.0 mm 0.00 in0.0 mm 0.00 in0.0 mm
12:46 PM 71.4°F21.9°C 45.2°F7.3°C 39% 7.0 mph SE11.3 kmh SE 7.0 mph11.3 kmh 30.07 in1018.3 mb 0.00 in0.0 mm 0.00 in0.0 mm 0.00 in0.0 mm
12:31 PM 72.1°F22.3°C 45.8°F7.7°C 39% 7.0 mph S11.3 kmh S 7.0 mph11.3 kmh 30.07 in1018.3 mb 0.00 in0.0 mm 0.00 in0.0 mm 0.00 in0.0 mm
12:16 PM 71.1°F21.7°C 46.9°F8.3°C 42% 3.0 mph WSW4.8 kmh WSW 5.0 mph8.0 kmh 30.08 in1018.6 mb 0.00 in0.0 mm 0.00 in0.0 mm 0.00 in0.0 mm
11:46 AM 69.8°F21.0°C 48.1°F8.9°C 46% 5.0 mph ESE8.0 kmh ESE 5.0 mph8.0 kmh 30.08 in1018.6 mb 0.00 in0.0 mm 0.00 in0.0 mm 0.00 in0.0 mm
11:31 AM 69.1°F20.6°C 51.8°F11.0°C 54% 3.0 mph S4.8 kmh S 3.0 mph4.8 kmh 30.09 in1019.0 mb 0.00 in0.0 mm 0.00 in0.0 mm 0.00 in0.0 mm
11:16 AM 69.6°F20.9°C 52.2°F11.2°C 54% 2.0 mph SSW3.2 kmh SSW 3.0 mph4.8 kmh 30.09 in1019.0 mb 0.00 in0.0 mm 0.00 in0.0 mm 0.00 in0.0 mm
10:46 AM 66.4°F19.1°C 50.7°F10.4°C 57% 2.0 mph WSW3.2 kmh WSW 3.0 mph4.8 kmh 30.10 in1019.3 mb 0.00 in0.0 mm 0.00 in0.0 mm 0.00 in0.0 mm
10:31 AM 67.1°F19.5°C 50.9°F10.5°C 56% 2.0 mph SSW3.2 kmh SSW 2.0 mph3.2 kmh 30.10 in1019.3 mb 0.00 in0.0 mm 0.00 in0.0 mm 0.00 in0.0 mm
10:01 AM 64.9°F18.3°C 52.0°F11.1°C 63% 1.0 mph WSW1.6 kmh WSW 1.0 mph1.6 kmh 30.10 in1019.3 mb 0.00 in0.0 mm 0.00 in0.0 mm 0.00 in0.0 mm
09:45 AM 62.8°F17.1°C 51.7°F10.9°C 67% 1.0 mph WSW1.6 kmh WSW 1.0 mph1.6 kmh 30.10 in1019.3 mb 0.00 in0.0 mm 0.00 in0.0 mm 0.00 in0.0 mm
09:30 AM 61.9°F16.6°C 51.2°F10.7°C 68% 1.0 mph WSW1.6 kmh WSW 2.0 mph3.2 kmh 30.10 in1019.3 mb 0.00 in0.0 mm 0.00 in0.0 mm 0.00 in0.0 mm
09:01 AM 59.4°F15.2°C 50.4°F10.2°C 72% 1.0 mph NW1.6 kmh NW 1.0 mph1.6 kmh 30.09 in1019.0 mb 0.00 in0.0 mm 0.00 in0.0 mm 0.00 in0.0 mm
08:46 AM 59.2°F15.1°C 50.2°F10.1°C 72% Calm Calm -- 30.09 in1019.0 mb 0.00 in0.0 mm 0.00 in0.0 mm 0.00 in0.0 mm
08:31 AM 56.1°F13.4°C 49.3°F9.6°C 78% Calm Calm -- 30.09 in1019.0 mb 0.00 in0.0 mm 0.00 in0.0 mm 0.00 in0.0 mm
08:16 AM 54.5°F12.5°C 48.8°F9.3°C 81% Calm Calm -- 30.09 in1019.0 mb 0.00 in0.0 mm 0.00 in0.0 mm 0.00 in0.0 mm
08:00 AM 53.2°F11.8°C 47.9°F8.8°C 82% Calm Calm 1.0 mph1.6 kmh 30.09 in1019.0 mb 0.00 in0.0 mm 0.00 in0.0 mm 0.00 in0.0 mm
07:46 AM 53.2°F11.8°C 47.9°F8.8°C 82% 1.0 mph E1.6 kmh E 1.0 mph1.6 kmh 30.08 in1018.6 mb 0.00 in0.0 mm 0.00 in0.0 mm 0.00 in0.0 mm
07:31 AM 53.2°F11.8°C 47.5°F8.6°C 81% Calm Calm -- 30.08 in1018.6 mb 0.00 in0.0 mm 0.00 in0.0 mm 0.00 in0.0 mm
07:16 AM 53.2°F11.8°C 47.5°F8.6°C 81% Calm Calm -- 30.08 in1018.6 mb 0.00 in0.0 mm 0.00 in0.0 mm 0.00 in0.0 mm
07:01 AM 52.9°F11.6°C 47.2°F8.4°C 81% 1.0 mph E1.6 kmh E 1.0 mph1.6 kmh 30.07 in1018.3 mb 0.00 in0.0 mm 0.00 in0.0 mm 0.00 in0.0 mm
06:46 AM 53.1°F11.7°C 47.1°F8.4°C 80% Calm Calm -- 30.06 in1017.9 mb 0.00 in0.0 mm 0.00 in0.0 mm 0.00 in0.0 mm
06:30 AM 53.4°F11.9°C 46.7°F8.2°C 78% Calm Calm -- 30.06 in1017.9 mb 0.00 in0.0 mm 0.00 in0.0 mm 0.00 in0.0 mm
06:15 AM 53.4°F11.9°C 46.7°F8.2°C 78% 1.0 mph ESE1.6 kmh ESE 1.0 mph1.6 kmh 30.05 in1017.6 mb 0.00 in0.0 mm 0.00 in0.0 mm 0.00 in0.0 mm
06:01 AM 53.4°F11.9°C 46.4°F8.0°C 77% Calm Calm -- 30.05 in1017.6 mb 0.00 in0.0 mm 0.00 in0.0 mm 0.00 in0.0 mm
05:46 AM 53.4°F11.9°C 47.1°F8.4°C 79% Calm Calm -- 30.05 in1017.6 mb 0.00 in0.0 mm 0.00 in0.0 mm 0.00 in0.0 mm
05:31 AM 54.0°F12.2°C 47.3°F8.5°C 78% Calm Calm -- 30.04 in1017.3 mb 0.00 in0.0 mm 0.00 in0.0 mm 0.00 in0.0 mm
05:16 AM 53.8°F12.1°C 47.1°F8.4°C 78% 1.0 mph E1.6 kmh E 1.0 mph1.6 kmh 30.04 in1017.3 mb 0.00 in0.0 mm 0.00 in0.0 mm 0.00 in0.0 mm
04:46 AM 54.3°F12.4°C 47.3°F8.5°C 77% 2.0 mph E3.2 kmh E 2.0 mph3.2 kmh 30.03 in1016.9 mb 0.00 in0.0 mm 0.00 in0.0 mm 0.00 in0.0 mm
04:31 AM 54.9°F12.7°C 47.5°F8.6°C 76% Calm Calm -- 30.03 in1016.9 mb 0.00 in0.0 mm 0.00 in0.0 mm 0.00 in0.0 mm
04:15 AM 55.4°F13.0°C 47.6°F8.7°C 75% 1.0 mph E1.6 kmh E 1.0 mph1.6 kmh 30.02 in1016.6 mb 0.00 in0.0 mm 0.00 in0.0 mm 0.00 in0.0 mm
04:01 AM 55.8°F13.2°C 48.7°F9.3°C 77% 1.0 mph E1.6 kmh E 1.0 mph1.6 kmh 30.02 in1016.6 mb 0.00 in0.0 mm 0.00 in0.0 mm 0.00 in0.0 mm
03:46 AM 55.6°F13.1°C 48.2°F9.0°C 76% Calm Calm -- 30.01 in1016.3 mb 0.00 in0.0 mm 0.00 in0.0 mm 0.00 in0.0 mm
03:31 AM 56.3°F13.5°C 47.8°F8.8°C 73% 1.0 mph SE1.6 kmh SE 2.0 mph3.2 kmh 30.01 in1016.3 mb 0.00 in0.0 mm 0.00 in0.0 mm 0.00 in0.0 mm
03:16 AM 56.7°F13.7°C 48.2°F9.0°C 73% 1.0 mph E1.6 kmh E 1.0 mph1.6 kmh 30.01 in1016.3 mb 0.00 in0.0 mm 0.00 in0.0 mm 0.00 in0.0 mm
03:01 AM 55.9°F13.3°C 48.5°F9.2°C 76% Calm Calm -- 30.01 in1016.3 mb 0.00 in0.0 mm 0.00 in0.0 mm 0.00 in0.0 mm
02:46 AM 56.8°F13.8°C 48.6°F9.2°C 74% 1.0 mph ESE1.6 kmh ESE 1.0 mph1.6 kmh 30.01 in1016.3 mb 0.00 in0.0 mm 0.00 in0.0 mm 0.00 in0.0 mm
02:31 AM 57.2°F14.0°C 50.8°F10.4°C 79% Calm Calm -- 30.01 in1016.3 mb 0.00 in0.0 mm 0.00 in0.0 mm 0.00 in0.0 mm
02:16 AM 57.0°F13.9°C 50.6°F10.3°C 79% 1.0 mph ENE1.6 kmh ENE 1.0 mph1.6 kmh 30.00 in1015.9 mb 0.00 in0.0 mm 0.00 in0.0 mm 0.00 in0.0 mm
01:46 AM 57.9°F14.4°C 51.1°F10.6°C 78% Calm Calm -- 30.00 in1015.9 mb 0.00 in0.0 mm 0.00 in0.0 mm 0.00 in0.0 mm
01:31 AM 58.5°F14.7°C 50.6°F10.3°C 75% 1.0 mph E1.6 kmh E 1.0 mph1.6 kmh 30.00 in1015.9 mb 0.00 in0.0 mm 0.00 in0.0 mm 0.00 in0.0 mm
01:16 AM 58.6°F14.8°C 51.8°F11.0°C 78% 3.0 mph E4.8 kmh E 3.0 mph4.8 kmh 30.00 in1015.9 mb 0.00 in0.0 mm 0.00 in0.0 mm 0.00 in0.0 mm
12:45 AM 59.4°F15.2°C 51.8°F11.0°C 76% 4.0 mph ESE6.4 kmh ESE 4.0 mph6.4 kmh 29.99 in1015.6 mb 0.00 in0.0 mm 0.00 in0.0 mm 0.00 in0.0 mm
12:31 AM 60.1°F15.6°C 51.8°F11.0°C 74% 2.0 mph ESE3.2 kmh ESE 2.0 mph3.2 kmh 29.99 in1015.6 mb 0.00 in0.0 mm 0.00 in0.0 mm 0.00 in0.0 mm
12:16 AM 61.2°F16.2°C 51.7°F10.9°C 71% 3.0 mph E4.8 kmh E 3.0 mph4.8 kmh 29.98 in1015.2 mb 0.00 in0.0 mm 0.00 in0.0 mm 0.00 in0.0 mm
12:01 AM 61.0°F16.1°C 51.5°F10.8°C 71% 2.0 mph E3.2 kmh E 2.0 mph3.2 kmh 29.98 in1015.2 mb 0.00 in0.0 mm 0.00 in0.0 mm 0.00 in0.0 mm